Custer, SD (57730)

8:10 AM MDT on April 25, 2017 (GMT -0600)
Pacer Subdivision | | Change Station
Active Advisory: Winter Weather Advisory

Elev 5558 ft 43.73 °N, 103.60 °W | Updated 8 seconds ago

Light Snow
Light Snow Freezing Fog
25.8 °F
Feels Like 26 °F
N
0.0
Wind Variable Wind from ENE
Gusts 5.0 mph

Today
High -- | Low -- °F
--% Chance of Precip.
Yesterday
High -- | Low -- °F
Precip. -- in
Pressure 29.59 in
Visibility 0.5 miles
Clouds Mostly Cloudy 1500 ft
Overcast 2800 ft
Windchill 26 °F
Dew Point 24 °F
Humidity 93%
Rainfall 0.02 in
Snow Depth Not available.
5:54 AM 7:50 PM
Waning Crescent, 1% visible
SPECI KCUT 251404Z AUTO 06010KT 1/2SM -SN FZFG BKN015 OVC028 M03/M05 A2959 RMK AO2 P0000 T10331050
Pressure 29.59 in
Visibility 0.5 miles
Clouds Mostly Cloudy 1500 ft
Overcast 2800 ft
Windchill 26 °F
Dew Point 24 °F
Humidity 93%
Rainfall 0.02 in
Snow Depth Not available.
5:54 AM 7:50 PM
Waning Crescent, 1% visible
SPECI KCUT 251404Z AUTO 06010KT 1/2SM -SN FZFG BKN015 OVC028 M03/M05 A2959 RMK AO2 P0000 T10331050

Get Your Daily Forecast Email!

Thanks for signing up!

Be on the lookout for a verification email in your inbox.

You'll start receiving severe weather alerts in your inbox..

×

10-Day Weather Forecast

Almanac

Astronomy

Apr. 25, 2017 Rise Set
Actual Time
Civil Twilight
Nautical Twilight
Astronomical Twilight
Moon
Length of Visible Light
Length of Day
Tomorrow will be .
, % of the Moon is Illuminated

Today's Extremes

State Highs State Lows

Community

WunderPhotos

WunderBlog® & News

Nearby

Air Quality

  Air Quality AQ Index Pollutant
Not available.

Snow Depth

Station Depth Elevation

Earthquake Activity

City Distance Mag. Time & Date
Minimum magnitude displayed is 2.5.

Coastal Water Temperatures

Place Temperature

Stations

Nearby Weather Stations

Station Location Temp. Windchill Dew Point Humidity Wind Precip. Elev Updated Type
                   

Watches & Warnings

Winter Weather Advisory
Issued: 3:46 AM MDT Apr. 25, 2017 – National Weather Service

... Winter Weather Advisory remains in effect until 3 PM MDT this
afternoon...

* timing... snow, heavy at times, will continue through the
afternoon.

* Main impact... snowfall totals of 2 to 6 inches are expected,
with the higher amounts generally over the higher elevations
of the northern and central Black Hills.

* Other impacts... with many trees beginning to Leaf out, the
heavy wet snow could bring down some tree limbs.

Precautionary/preparedness actions...

A Winter Weather Advisory for snow means snow accumulation will
create hazardous conditions. Use caution when traveling.